Theologos P . — SZNB — position and weather

sailwx.info

Track history (hours):
 
Tides and Currents Weather Stations Pressure Air Temp Water Temp Dewpoint Dewpoint Depression Visibility Wind Speed Wind Dir Waves Ship Positions

Theologos P .

Last reported at 2014-Dec-22 10:13 UTC. Time now 2014-Dec-22 13:26 UTC.
Position N 38°01' E 024°03'.

Length 118 m; draft 4.5 m.

Type: Passenger vessel. MMSI: 240521000.

Date/timePositionNaut miles runAvg speedWind from/ knotsBaromVisibWave heightAir tempDewpointWater temp
2014-Dec-22 10:13N 38°01' E 024°03'1818.6
2014-Dec-22 09:15N 37°55' E 024°25'2212.9
2014-Dec-22 07:33N 37°45' E 024°49'1818.5
2014-Dec-22 06:34N 37°33' E 025°07'1111.3
2014-Dec-22 05:34N 37°28' E 025°20'0 0.0
2014-Dec-22 04:34N 37°28' E 025°20'0 0.0
2014-Dec-22 03:34N 37°28' E 025°20'0 0.0
2014-Dec-22 02:33N 37°28' E 025°20'0 0.0
2014-Dec-22 01:34N 37°28' E 025°20'0 0.0
2014-Dec-22 00:34N 37°28' E 025°20'0 0.0
2014-Dec-21 23:33N 37°28' E 025°20'0 0.0
2014-Dec-21 22:34N 37°28' E 025°20'0 0.0
2014-Dec-21 21:34N 37°28' E 025°20'0 0.0
2014-Dec-21 20:33N 37°28' E 025°20'9 9.4
2014-Dec-21 19:34N 37°32' E 025°09'1918.4
2014-Dec-21 18:32N 37°45' E 024°51'1310.8
2014-Dec-21 17:22N 37°51' E 024°38'9 2.4
2014-Dec-21 13:33N 37°54' E 024°27'1511.4
2014-Dec-21 12:14N 37°49' E 024°45'1319.2
2014-Dec-21 11:33N 37°40' E 024°56'1413.6
2014-Dec-21 10:33N 37°31' E 025°10'9 8.6
2014-Dec-21 09:33N 37°28' E 025°20'0 0.0
2014-Dec-21 08:33N 37°28' E 025°20'0 0.0
2014-Dec-21 07:33N 37°28' E 025°20'0 0.0
2014-Dec-21 06:33N 37°28' E 025°20'0 0.0
2014-Dec-21 05:33N 37°28' E 025°20'0 0.0
2014-Dec-21 04:33N 37°28' E 025°20'0 0.0
2014-Dec-21 03:33N 37°28' E 025°20'0 0.0
2014-Dec-21 02:33N 37°28' E 025°20'0 0.0
2014-Dec-21 01:33N 37°28' E 025°20'0 0.0
2014-Dec-21 00:33N 37°28' E 025°20'0 0.0
2014-Dec-20 23:33N 37°28' E 025°20'0 0.0
2014-Dec-20 22:33N 37°28' E 025°20'0 0.0
2014-Dec-20 21:33N 37°28' E 025°20'0 0.0
2014-Dec-20 20:33N 37°28' E 025°20'9 9.3
2014-Dec-20 19:33N 37°32' E 025°09'1616.3
2014-Dec-20 18:33N 37°43' E 024°53'1612.7
2014-Dec-20 17:18N 37°52' E 024°37'17 5.2
2014-Dec-20 14:05N 37°57' E 024°17'1018.7
2014-Dec-20 13:33N 37°54' E 024°29'1410.3
2014-Dec-20 12:08N 37°48' E 024°46'1119.4
2014-Dec-20 11:33N 37°40' E 024°56'1413.5
2014-Dec-20 10:33N 37°32' E 025°10'9 8.9
2014-Dec-20 09:33N 37°28' E 025°20'0 0.0
2014-Dec-20 08:33N 37°28' E 025°20'0 0.0
2014-Dec-20 07:33N 37°28' E 025°20'0 0.0
2014-Dec-20 06:33N 37°28' E 025°20'0 0.0
2014-Dec-20 05:34N 37°28' E 025°20'0 0.0
2014-Dec-20 04:33N 37°28' E 025°20'0 0.0
2014-Dec-20 03:34N 37°28' E 025°20'0 0.0
2014-Dec-20 02:33N 37°28' E 025°20'0 0.0
2014-Dec-20 01:33N 37°28' E 025°20'0 0.0
2014-Dec-20 00:33N 37°28' E 025°20'0 0.0
2014-Dec-19 23:33N 37°28' E 025°20'0 0.0
2014-Dec-19 22:33N 37°28' E 025°20'0 0.0
2014-Dec-19 21:33N 37°28' E 025°20'0 0.1
2014-Dec-19 20:33N 37°28' E 025°20'1211.6
2014-Dec-19 19:33N 37°33' E 025°06'1818.0
2014-Dec-19 18:33N 37°45' E 024°50'1010.2
2014-Dec-19 17:32N 37°52' E 024°40'2518.2
2014-Dec-19 16:09N 37°59' E 024°10'7 0.2
2014-Dec-18 08:20N 38°01' E 024°01'0 0.0
2014-Dec-18 07:28N 38°01' E 024°01'0 0.0
2014-Dec-18 04:08N 38°01' E 024°01'0 0.0
2014-Dec-17 19:31N 38°01' E 024°01'0 0.0
2014-Dec-16 00:30N 38°01' E 024°01'0 0.0
2014-Dec-15 22:22N 38°01' E 024°01'0 0.0
2014-Dec-15 19:30N 38°01' E 024°01'0 0.0
2014-Dec-15 18:04N 38°01' E 024°01'0 0.0
2014-Dec-15 15:28N 38°01' E 024°01'0 0.0
2014-Dec-15 13:29N 38°01' E 024°01'0 0.0
2014-Dec-15 12:14N 38°01' E 024°01'710.3
2014-Dec-15 11:32N 37°55' E 024°04'1717.3
2014-Dec-15 10:33N 37°38' E 024°01'1717.0
2014-Dec-15 09:34N 37°44' E 023°41'1514.7
2014-Dec-15 08:33N 37°57' E 023°34'  
Track history (hours):
 
Tides and Currents Weather Stations Pressure Air Temp Water Temp Dewpoint Dewpoint Depression Visibility Wind Speed Wind Dir Waves Ship Positions

Theologos P .

Last reported at 2014-Dec-22 10:13 UTC. Time now 2014-Dec-22 13:26 UTC.
Position N 38°01' E 024°03'.

Length 118 m; draft 4.5 m.

Type: Passenger vessel. MMSI: 240521000.

Date/timePositionNaut miles runAvg speedWind from/ knotsBaromVisibWave heightAir tempDewpointWater temp
2014-Dec-22 10:13N 38°01' E 024°03'1818.6
2014-Dec-22 09:15N 37°55' E 024°25'2212.9
2014-Dec-22 07:33N 37°45' E 024°49'1818.5
2014-Dec-22 06:34N 37°33' E 025°07'1111.3
2014-Dec-22 05:34N 37°28' E 025°20'0 0.0
2014-Dec-22 04:34N 37°28' E 025°20'0 0.0
2014-Dec-22 03:34N 37°28' E 025°20'0 0.0
2014-Dec-22 02:33N 37°28' E 025°20'0 0.0
2014-Dec-22 01:34N 37°28' E 025°20'0 0.0
2014-Dec-22 00:34N 37°28' E 025°20'0 0.0
2014-Dec-21 23:33N 37°28' E 025°20'0 0.0
2014-Dec-21 22:34N 37°28' E 025°20'0 0.0
2014-Dec-21 21:34N 37°28' E 025°20'0 0.0
2014-Dec-21 20:33N 37°28' E 025°20'9 9.4
2014-Dec-21 19:34N 37°32' E 025°09'1918.4
2014-Dec-21 18:32N 37°45' E 024°51'1310.8
2014-Dec-21 17:22N 37°51' E 024°38'9 2.4
2014-Dec-21 13:33N 37°54' E 024°27'1511.4
2014-Dec-21 12:14N 37°49' E 024°45'1319.2
2014-Dec-21 11:33N 37°40' E 024°56'1413.6
2014-Dec-21 10:33N 37°31' E 025°10'9 8.6
2014-Dec-21 09:33N 37°28' E 025°20'0 0.0
2014-Dec-21 08:33N 37°28' E 025°20'0 0.0
2014-Dec-21 07:33N 37°28' E 025°20'0 0.0
2014-Dec-21 06:33N 37°28' E 025°20'0 0.0
2014-Dec-21 05:33N 37°28' E 025°20'0 0.0
2014-Dec-21 04:33N 37°28' E 025°20'0 0.0
2014-Dec-21 03:33N 37°28' E 025°20'0 0.0
2014-Dec-21 02:33N 37°28' E 025°20'0 0.0
2014-Dec-21 01:33N 37°28' E 025°20'0 0.0
2014-Dec-21 00:33N 37°28' E 025°20'0 0.0
2014-Dec-20 23:33N 37°28' E 025°20'0 0.0
2014-Dec-20 22:33N 37°28' E 025°20'0 0.0
2014-Dec-20 21:33N 37°28' E 025°20'0 0.0
2014-Dec-20 20:33N 37°28' E 025°20'9 9.3
2014-Dec-20 19:33N 37°32' E 025°09'1616.3
2014-Dec-20 18:33N 37°43' E 024°53'1612.7
2014-Dec-20 17:18N 37°52' E 024°37'17 5.2
2014-Dec-20 14:05N 37°57' E 024°17'1018.7
2014-Dec-20 13:33N 37°54' E 024°29'1410.3
2014-Dec-20 12:08N 37°48' E 024°46'1119.4
2014-Dec-20 11:33N 37°40' E 024°56'1413.5
2014-Dec-20 10:33N 37°32' E 025°10'9 8.9
2014-Dec-20 09:33N 37°28' E 025°20'0 0.0
2014-Dec-20 08:33N 37°28' E 025°20'0 0.0
2014-Dec-20 07:33N 37°28' E 025°20'0 0.0
2014-Dec-20 06:33N 37°28' E 025°20'0 0.0
2014-Dec-20 05:34N 37°28' E 025°20'0 0.0
2014-Dec-20 04:33N 37°28' E 025°20'0 0.0
2014-Dec-20 03:34N 37°28' E 025°20'0 0.0
2014-Dec-20 02:33N 37°28' E 025°20'0 0.0
2014-Dec-20 01:33N 37°28' E 025°20'0 0.0
2014-Dec-20 00:33N 37°28' E 025°20'0 0.0
2014-Dec-19 23:33N 37°28' E 025°20'0 0.0
2014-Dec-19 22:33N 37°28' E 025°20'0 0.0
2014-Dec-19 21:33N 37°28' E 025°20'0 0.1
2014-Dec-19 20:33N 37°28' E 025°20'1211.6
2014-Dec-19 19:33N 37°33' E 025°06'1818.0
2014-Dec-19 18:33N 37°45' E 024°50'1010.2
2014-Dec-19 17:32N 37°52' E 024°40'2518.2
2014-Dec-19 16:09N 37°59' E 024°10'7 0.2
2014-Dec-18 08:20N 38°01' E 024°01'0 0.0
2014-Dec-18 07:28N 38°01' E 024°01'0 0.0
2014-Dec-18 04:08N 38°01' E 024°01'0 0.0
2014-Dec-17 19:31N 38°01' E 024°01'0 0.0
2014-Dec-16 00:30N 38°01' E 024°01'0 0.0
2014-Dec-15 22:22N 38°01' E 024°01'0 0.0
2014-Dec-15 19:30N 38°01' E 024°01'0 0.0
2014-Dec-15 18:04N 38°01' E 024°01'0 0.0
2014-Dec-15 15:28N 38°01' E 024°01'0 0.0
2014-Dec-15 13:29N 38°01' E 024°01'0 0.0
2014-Dec-15 12:14N 38°01' E 024°01'710.3
2014-Dec-15 11:32N 37°55' E 024°04'1717.3
2014-Dec-15 10:33N 37°38' E 024°01'1717.0
2014-Dec-15 09:34N 37°44' E 023°41'1514.7
2014-Dec-15 08:33N 37°57' E 023°34'  

Dump ship's entire track history